Time;durP1;ratioP1;P1;durP2;ratioP2;P2;SDS_P1;SDS_P2;PMS_P1;PMS_P2;Temp;Humidity;BMP_temperature;BMP_pressure;BME280_temperature;BME280_humidity;BME280_pressure;Samples;Min_cycle;Max_cycle;Signal;HPM_P1;HPM_P2
2022/12/28 00:00:34;;;;;;;3.50;1.53;;;6.40;99.90;;;;;;5017831;28;20466;-83
2022/12/28 00:03:03;;;;;;;2.83;1.00;;;6.40;99.90;;;;;;5022678;28;20480;-84
2022/12/28 00:05:30;;;;;;;2.23;1.20;;;6.40;99.90;;;;;;5011187;28;20458;-82
2022/12/28 00:07:57;;;;;;;5.57;1.40;;;6.40;99.90;;;;;;5013594;28;20846;-83
2022/12/28 00:10:24;;;;;;;8.83;1.83;;;6.40;99.90;;;;;;5011490;28;20533;-83
2022/12/28 00:12:50;;;;;;;3.83;1.13;;;6.40;99.90;;;;;;5021273;28;20503;-83
2022/12/28 00:15:18;;;;;;;3.33;1.30;;;6.50;99.90;;;;;;5018835;28;20979;-82
2022/12/28 00:17:45;;;;;;;4.40;1.63;;;6.50;99.90;;;;;;5004072;28;20433;-82
2022/12/28 00:20:13;;;;;;;3.47;1.73;;;6.60;99.90;;;;;;5009641;28;20486;-83
2022/12/28 00:22:40;;;;;;;6.27;1.40;;;6.60;99.90;;;;;;5023869;28;20475;-83
2022/12/28 00:25:08;;;;;;;4.07;1.60;;;6.60;99.90;;;;;;5025060;28;20547;-83
2022/12/28 00:27:34;;;;;;;9.00;1.60;;;6.60;99.90;;;;;;5021846;28;20458;-82
2022/12/28 00:30:01;;;;;;;5.43;1.30;;;6.60;99.90;;;;;;5024787;28;20456;-83
2022/12/28 00:32:29;;;;;;;3.80;1.23;;;6.60;99.90;;;;;;5025362;28;20494;-82
2022/12/28 00:34:56;;;;;;;2.43;1.40;;;6.70;99.90;;;;;;5019331;28;20547;-83
2022/12/28 00:37:23;;;;;;;2.73;1.30;;;6.70;99.90;;;;;;5020821;28;20521;-83
2022/12/28 00:39:50;;;;;;;8.20;1.50;;;6.70;99.90;;;;;;5024492;28;20469;-81
2022/12/28 00:42:16;;;;;;;3.80;1.20;;;6.80;99.90;;;;;;5023296;28;20484;-82
2022/12/28 00:44:43;;;;;;;3.23;1.43;;;6.80;99.90;;;;;;5022003;28;20539;-82
2022/12/28 00:47:10;;;;;;;3.87;1.40;;;6.80;99.90;;;;;;5026342;28;20533;-82
2022/12/28 00:49:38;;;;;;;6.60;1.50;;;6.70;99.90;;;;;;5027625;28;20520;-81
2022/12/28 00:52:05;;;;;;;4.13;1.73;;;6.60;99.90;;;;;;5027482;28;20492;-81
2022/12/28 00:54:32;;;;;;;2.63;1.20;;;6.50;99.90;;;;;;5027225;28;21031;-81
2022/12/28 00:56:59;;;;;;;2.50;1.30;;;6.40;99.90;;;;;;5028229;28;20474;-82
2022/12/28 00:59:26;;;;;;;2.80;1.10;;;6.30;99.90;;;;;;5025421;28;20459;-82
2022/12/28 01:01:52;;;;;;;4.07;1.43;;;6.30;99.90;;;;;;5027063;28;20465;-81
2022/12/28 01:04:21;;;;;;;2.20;1.27;;;6.40;99.90;;;;;;5026930;28;20548;-81
2022/12/28 01:06:49;;;;;;;8.53;1.67;;;6.20;99.90;;;;;;5028537;28;20462;-81
2022/12/28 01:09:16;;;;;;;9.13;1.50;;;6.20;99.90;;;;;;5026173;28;20520;-81
2022/12/28 01:11:43;;;;;;;2.30;1.10;;;6.20;99.90;;;;;;5027737;28;20537;-81
2022/12/28 01:14:10;;;;;;;4.60;1.37;;;6.10;99.90;;;;;;5027385;28;20523;-82
2022/12/28 01:16:37;;;;;;;2.43;1.40;;;6.10;99.90;;;;;;5027917;28;20455;-81
2022/12/28 01:19:07;;;;;;;3.80;1.20;;;6.10;99.90;;;;;;5027679;28;20816;-82
2022/12/28 01:21:35;;;;;;;3.00;1.60;;;6.10;99.90;;;;;;5027488;28;20570;-82
2022/12/28 01:24:06;;;;;;;3.70;1.80;;;6.10;99.90;;;;;;5028460;28;20450;-81
2022/12/28 01:26:33;;;;;;;4.87;2.13;;;6.20;99.90;;;;;;5028296;28;20454;-82
2022/12/28 01:29:00;;;;;;;3.50;1.43;;;6.20;99.90;;;;;;5029339;28;20453;-81
2022/12/28 01:31:27;;;;;;;4.13;2.17;;;6.20;99.90;;;;;;5030746;28;20472;-81
2022/12/28 01:33:54;;;;;;;3.87;1.80;;;6.20;99.90;;;;;;5030115;28;20516;-81
2022/12/28 01:36:23;;;;;;;5.20;1.60;;;6.20;99.90;;;;;;5029142;28;20519;-82
2022/12/28 01:38:53;;;;;;;6.03;1.50;;;6.20;99.90;;;;;;5029844;28;20456;-82
2022/12/28 01:41:22;;;;;;;4.23;1.40;;;6.20;99.90;;;;;;5027681;28;20532;-80
2022/12/28 01:44:27;;;;;;;3.57;1.53;;;6.20;99.90;;;;;;5049236;22;20881;-79
2022/12/28 01:46:57;;;;;;;4.10;1.30;;;6.20;99.90;;;;;;5017813;28;20450;-79
2022/12/28 01:49:29;;;;;;;3.53;1.30;;;6.20;99.90;;;;;;5003177;28;20448;-79
2022/12/28 01:52:02;;;;;;;6.13;1.57;;;6.20;99.90;;;;;;4999095;28;20494;-80
2022/12/28 01:54:33;;;;;;;7.73;1.67;;;6.20;99.90;;;;;;4998690;28;20464;-79
2022/12/28 01:57:02;;;;;;;4.43;1.73;;;6.20;99.90;;;;;;4999685;28;20477;-79
2022/12/28 01:59:32;;;;;;;6.70;1.53;;;6.20;99.90;;;;;;5013952;28;20460;-80
2022/12/28 02:01:59;;;;;;;4.17;1.70;;;6.20;99.90;;;;;;5018749;28;20457;-79
2022/12/28 02:04:26;;;;;;;4.50;1.87;;;6.20;99.90;;;;;;5020197;28;20558;-79
2022/12/28 02:06:55;;;;;;;2.57;1.30;;;6.30;99.90;;;;;;5019818;28;20822;-78
2022/12/28 02:09:26;;;;;;;3.77;1.77;;;6.30;99.90;;;;;;5018613;28;20454;-80
2022/12/28 02:11:54;;;;;;;4.00;2.00;;;6.30;99.90;;;;;;5017958;28;20868;-79
2022/12/28 02:14:22;;;;;;;2.83;1.57;;;6.30;99.90;;;;;;5011762;28;20483;-79
2022/12/28 02:16:50;;;;;;;3.10;1.20;;;6.40;99.90;;;;;;5017467;28;20454;-79
2022/12/28 02:19:21;;;;;;;6.27;2.43;;;6.40;99.90;;;;;;5017146;28;20546;-78
2022/12/28 02:22:09;;;;;;;2.47;1.40;;;6.40;99.90;;;;;;5015975;28;20447;-78
2022/12/28 02:25:00;;;;;;;2.10;1.20;;;6.50;99.90;;;;;;5021540;28;20536;-79
2022/12/28 02:27:36;;;;;;;3.40;1.57;;;6.50;99.90;;;;;;5019823;28;20445;-79
2022/12/28 02:30:07;;;;;;;3.93;1.73;;;6.60;99.90;;;;;;4998354;28;20537;-78
2022/12/28 02:32:48;;;;;;;2.83;1.13;;;6.60;99.90;;;;;;5005625;28;20484;-79
2022/12/28 02:35:21;;;;;;;5.07;1.50;;;6.70;99.90;;;;;;5008857;28;20532;-77
2022/12/28 02:37:52;;;;;;;2.70;1.77;;;6.70;99.90;;;;;;5010670;28;20438;-78
2022/12/28 02:40:23;;;;;;;2.37;1.20;;;6.80;99.90;;;;;;5031165;28;20437;-78
2022/12/28 02:42:53;;;;;;;5.90;2.73;;;6.90;99.90;;;;;;4996421;28;1052359;-79
2022/12/28 02:51:23;;;;;;;8.30;1.47;;;7.10;99.90;;;;;;5033801;28;20436;-77
2022/12/28 02:57:19;;;;;;;2.83;1.30;;;7.20;99.90;;;;;;5034093;28;20423;-78
2022/12/28 03:00:02;;;;;;;4.57;1.80;;;7.20;99.90;;;;;;5027195;28;20459;-79
2022/12/28 03:02:54;;;;;;;4.60;1.50;;;7.20;99.90;;;;;;5021198;28;20539;-79
2022/12/28 03:08:20;;;;;;;2.20;1.37;;;7.30;99.90;;;;;;5021953;28;20470;-79
2022/12/28 03:10:52;;;;;;;4.30;1.50;;;7.30;99.90;;;;;;5022265;28;20447;-79
2022/12/28 03:16:22;;;;;;;5.27;1.70;;;7.40;99.90;;;;;;5008781;28;20958;-79
2022/12/28 03:32:58;;;;;;;3.20;1.57;;;7.10;99.90;;;;;;5020343;28;20489;-79
2022/12/28 03:35:35;;;;;;;2.60;1.50;;;7.10;99.90;;;;;;5021299;28;20461;-79
2022/12/28 03:38:03;;;;;;;2.73;1.47;;;7.10;99.90;;;;;;5018801;28;20584;-79
2022/12/28 03:40:35;;;;;;;4.10;1.90;;;7.10;99.90;;;;;;5020650;28;20459;-79
2022/12/28 03:45:56;;;;;;;2.73;1.33;;;7.00;99.90;;;;;;5007824;28;20467;-80
2022/12/28 03:48:24;;;;;;;8.50;1.87;;;7.00;99.90;;;;;;5017818;28;21186;-79
2022/12/28 03:50:53;;;;;;;2.90;1.70;;;7.00;99.90;;;;;;5019102;28;20467;-80
2022/12/28 03:53:26;;;;;;;4.43;1.60;;;7.00;99.90;;;;;;5018774;28;20489;-80
2022/12/28 03:56:04;;;;;;;4.27;1.57;;;6.90;99.90;;;;;;5018204;28;20458;-79
2022/12/28 03:58:31;;;;;;;3.33;1.47;;;7.00;99.90;;;;;;5018423;28;20833;-80
2022/12/28 04:00:58;;;;;;;2.37;1.40;;;7.00;99.90;;;;;;5018692;28;20950;-80
2022/12/28 04:03:24;;;;;;;3.10;1.43;;;7.00;99.90;;;;;;5019130;28;20481;-79
2022/12/28 04:05:52;;;;;;;3.03;2.00;;;7.10;99.90;;;;;;5019384;28;20471;-79
2022/12/28 04:08:19;;;;;;;5.30;1.67;;;7.10;99.90;;;;;;5017191;28;20475;-79
2022/12/28 04:10:46;;;;;;;2.53;1.20;;;7.10;99.90;;;;;;5019398;28;20461;-79
2022/12/28 04:13:13;;;;;;;2.50;1.50;;;7.10;99.90;;;;;;5018684;28;20493;-79
2022/12/28 04:15:39;;;;;;;2.83;1.60;;;7.10;99.90;;;;;;5018428;28;20454;-79
2022/12/28 04:18:06;;;;;;;3.63;1.53;;;7.20;99.90;;;;;;5016967;28;20469;-79
2022/12/28 04:20:33;;;;;;;4.20;1.90;;;7.20;99.90;;;;;;5019473;28;20512;-79
2022/12/28 04:23:01;;;;;;;3.80;1.67;;;7.20;99.90;;;;;;5018008;28;20479;-79
2022/12/28 04:25:28;;;;;;;3.40;1.70;;;7.20;99.90;;;;;;5006275;28;20464;-79
2022/12/28 04:27:55;;;;;;;3.63;1.53;;;7.20;99.90;;;;;;5018675;28;20462;-80
2022/12/28 04:30:21;;;;;;;2.40;1.50;;;7.20;99.90;;;;;;5011695;28;20539;-79
2022/12/28 04:32:48;;;;;;;2.60;1.63;;;7.20;99.90;;;;;;5004981;28;21109;-79
2022/12/28 04:35:15;;;;;;;2.53;1.53;;;7.20;99.90;;;;;;4998031;28;20452;-79
2022/12/28 04:37:42;;;;;;;2.40;1.57;;;7.20;99.90;;;;;;5001736;28;20816;-79
2022/12/28 04:40:11;;;;;;;4.97;2.47;;;7.20;99.90;;;;;;5009370;28;20451;-80
2022/12/28 04:42:38;;;;;;;3.53;1.53;;;7.20;99.90;;;;;;5017912;28;20832;-79
2022/12/28 04:45:05;;;;;;;3.67;1.87;;;7.20;99.90;;;;;;5023146;28;20435;-78
2022/12/28 04:47:32;;;;;;;3.47;1.67;;;7.20;99.90;;;;;;5022026;28;20451;-80
2022/12/28 04:49:59;;;;;;;3.03;1.60;;;7.20;99.90;;;;;;5017132;28;20460;-79
2022/12/28 04:52:26;;;;;;;3.03;1.70;;;7.20;99.90;;;;;;5019452;28;20456;-80
2022/12/28 04:54:53;;;;;;;4.13;2.40;;;7.10;99.90;;;;;;5020455;28;20459;-79
2022/12/28 04:57:21;;;;;;;3.50;2.30;;;7.10;99.90;;;;;;5017925;28;20452;-79
2022/12/28 04:59:48;;;;;;;4.97;1.70;;;7.10;99.90;;;;;;5019670;28;20553;-79
2022/12/28 05:02:14;;;;;;;6.03;2.53;;;7.10;99.90;;;;;;5019209;28;20457;-80
2022/12/28 05:04:41;;;;;;;3.60;2.10;;;7.10;99.90;;;;;;5020832;28;20480;-80
2022/12/28 05:07:08;;;;;;;8.47;2.37;;;7.10;99.90;;;;;;5024062;28;20460;-79
2022/12/28 05:09:35;;;;;;;3.30;1.77;;;7.10;99.90;;;;;;5020180;28;20449;-81
2022/12/28 05:12:01;;;;;;;4.00;2.63;;;7.10;99.90;;;;;;5022738;28;20548;-80
2022/12/28 05:14:30;;;;;;;3.07;1.93;;;7.10;99.90;;;;;;5020528;28;20762;-79
2022/12/28 05:16:56;;;;;;;8.37;2.60;;;7.00;99.90;;;;;;5019231;28;20456;-79
2022/12/28 05:19:23;;;;;;;5.00;1.90;;;7.10;99.90;;;;;;5017531;28;20559;-80
2022/12/28 05:21:50;;;;;;;4.50;2.27;;;7.10;99.90;;;;;;5019012;28;20465;-79
2022/12/28 05:24:17;;;;;;;3.83;2.50;;;7.10;99.90;;;;;;5020001;28;20483;-79
2022/12/28 05:26:44;;;;;;;8.50;2.30;;;7.10;99.90;;;;;;5019437;28;20457;-80
2022/12/28 05:29:10;;;;;;;4.57;2.10;;;7.10;99.90;;;;;;5020029;28;20460;-80
2022/12/28 05:31:38;;;;;;;6.63;2.00;;;7.10;99.90;;;;;;5020212;28;20521;-79
2022/12/28 05:34:05;;;;;;;3.83;2.30;;;7.10;99.90;;;;;;5018071;28;20501;-78
2022/12/28 05:36:35;;;;;;;5.23;2.50;;;7.10;99.90;;;;;;5018690;28;20457;-80
2022/12/28 05:39:02;;;;;;;4.73;1.83;;;7.20;99.90;;;;;;5018961;28;20469;-82
2022/12/28 05:41:30;;;;;;;3.63;2.37;;;7.10;99.90;;;;;;5010983;28;20466;-80
2022/12/28 05:43:59;;;;;;;5.83;2.27;;;7.20;99.90;;;;;;5019382;28;20484;-79
2022/12/28 05:46:27;;;;;;;8.77;2.60;;;7.20;99.90;;;;;;5017482;28;20464;-79
2022/12/28 05:48:56;;;;;;;4.77;2.57;;;7.20;99.90;;;;;;5019249;28;20467;-80
2022/12/28 05:51:25;;;;;;;3.40;2.30;;;7.20;99.90;;;;;;5019842;28;20471;-81
2022/12/28 05:53:51;;;;;;;4.30;2.30;;;7.20;99.90;;;;;;5018508;28;20489;-79
2022/12/28 05:56:20;;;;;;;5.90;2.83;;;7.30;99.90;;;;;;5017912;28;20483;-79
2022/12/28 05:58:52;;;;;;;7.10;2.80;;;7.30;99.90;;;;;;5009083;28;20969;-79
2022/12/28 06:01:20;;;;;;;3.80;2.60;;;7.20;99.90;;;;;;5019087;28;20464;-79
2022/12/28 06:03:52;;;;;;;4.50;1.90;;;7.20;99.90;;;;;;5018503;28;20495;-78
2022/12/28 06:06:20;;;;;;;3.50;2.83;;;7.20;99.90;;;;;;5019569;28;20505;-79
2022/12/28 06:08:48;;;;;;;3.93;2.50;;;7.30;99.90;;;;;;5018223;28;20457;-80
2022/12/28 06:11:17;;;;;;;4.27;2.40;;;7.30;99.90;;;;;;5018036;28;20457;-79
2022/12/28 06:13:44;;;;;;;5.30;2.80;;;7.30;99.90;;;;;;5017589;28;20493;-79
2022/12/28 06:16:13;;;;;;;4.53;2.93;;;7.30;99.90;;;;;;5019361;28;20463;-79
2022/12/28 06:18:40;;;;;;;4.47;2.67;;;7.40;99.90;;;;;;5017324;28;20468;-79
2022/12/28 06:21:09;;;;;;;9.63;2.63;;;7.40;99.90;;;;;;5020255;28;20461;-79
2022/12/28 06:23:38;;;;;;;4.97;2.70;;;7.40;99.90;;;;;;5015107;28;20478;-79
2022/12/28 06:26:06;;;;;;;4.33;2.17;;;7.40;99.90;;;;;;5011003;28;20467;-79
2022/12/28 06:28:36;;;;;;;2.83;2.50;;;7.40;99.90;;;;;;5013387;28;20463;-81
2022/12/28 06:31:03;;;;;;;4.37;2.80;;;7.40;99.90;;;;;;5012242;28;20991;-78
2022/12/28 06:33:30;;;;;;;4.10;2.60;;;7.40;99.90;;;;;;5013708;28;20500;-78
2022/12/28 06:35:57;;;;;;;4.90;2.00;;;7.40;99.90;;;;;;5014357;28;20935;-79
2022/12/28 06:38:25;;;;;;;6.20;3.10;;;7.40;99.90;;;;;;5017307;28;20449;-78
2022/12/28 06:40:54;;;;;;;3.43;2.40;;;7.40;99.90;;;;;;5018315;28;20455;-77
2022/12/28 06:43:21;;;;;;;4.47;2.90;;;7.40;99.90;;;;;;5018075;28;20472;-79
2022/12/28 06:45:55;;;;;;;5.60;2.97;;;7.40;99.90;;;;;;5017866;28;20528;-79
2022/12/28 06:48:22;;;;;;;4.70;2.67;;;7.40;99.90;;;;;;5019204;28;20530;-79
2022/12/28 06:50:56;;;;;;;4.70;3.13;;;7.40;99.90;;;;;;5018460;28;20453;-78
2022/12/28 06:53:23;;;;;;;3.77;2.77;;;7.50;99.90;;;;;;5020576;28;20499;-78
2022/12/28 06:55:55;;;;;;;4.57;3.07;;;7.50;99.90;;;;;;5026079;28;20461;-79
2022/12/28 06:58:22;;;;;;;4.10;2.77;;;7.50;99.90;;;;;;5016851;28;20544;-80
2022/12/28 07:00:49;;;;;;;4.20;2.30;;;7.60;99.90;;;;;;5017055;28;20457;-79
2022/12/28 07:03:15;;;;;;;7.40;2.97;;;7.60;99.90;;;;;;5017028;28;20640;-79
2022/12/28 07:05:42;;;;;;;4.90;2.80;;;7.60;99.90;;;;;;5017248;28;20461;-81
2022/12/28 07:08:09;;;;;;;4.40;2.50;;;7.60;99.90;;;;;;5017079;28;20548;-81
2022/12/28 07:10:36;;;;;;;4.60;3.20;;;7.60;99.90;;;;;;5019724;28;20459;-81
2022/12/28 07:13:05;;;;;;;6.53;3.17;;;7.70;99.90;;;;;;5018424;28;21119;-81
2022/12/28 07:15:32;;;;;;;5.50;3.70;;;7.60;99.90;;;;;;5019543;28;20460;-80
2022/12/28 07:17:59;;;;;;;5.80;2.83;;;7.70;99.90;;;;;;5017689;28;20511;-81
2022/12/28 07:20:26;;;;;;;4.90;3.57;;;7.60;99.90;;;;;;5019636;28;20452;-80
2022/12/28 07:22:53;;;;;;;4.00;2.10;;;7.70;99.90;;;;;;5019604;28;20475;-79
2022/12/28 07:25:20;;;;;;;5.40;2.33;;;7.70;99.90;;;;;;5018694;28;20456;-79
2022/12/28 07:27:47;;;;;;;3.30;2.40;;;7.70;99.90;;;;;;5013017;28;20461;-78
2022/12/28 07:30:16;;;;;;;3.20;2.23;;;7.70;99.90;;;;;;5019323;28;20532;-80
2022/12/28 07:32:42;;;;;;;5.70;2.83;;;7.80;99.90;;;;;;5023137;28;21009;-78
2022/12/28 07:35:10;;;;;;;4.00;2.20;;;7.80;99.90;;;;;;5023832;28;20503;-78
2022/12/28 07:37:37;;;;;;;7.20;2.60;;;7.80;99.90;;;;;;5021938;28;20545;-79
2022/12/28 07:40:04;;;;;;;4.47;2.27;;;7.80;99.90;;;;;;5004681;28;20464;-80
2022/12/28 07:42:31;;;;;;;4.17;2.60;;;7.80;99.90;;;;;;5022154;28;20467;-81
2022/12/28 07:44:58;;;;;;;4.53;2.50;;;7.90;99.90;;;;;;5047672;22;20582;-83
2022/12/28 07:47:26;;;;;;;6.13;2.60;;;7.90;99.90;;;;;;5033691;28;20463;-83
2022/12/28 07:49:53;;;;;;;4.00;2.53;;;8.00;99.90;;;;;;5036717;28;20453;-81
2022/12/28 07:52:19;;;;;;;7.73;3.23;;;8.00;99.90;;;;;;5034152;28;20531;-81
2022/12/28 07:54:46;;;;;;;14.83;2.70;;;8.00;99.90;;;;;;5030414;28;21005;-81
2022/12/28 07:57:13;;;;;;;5.20;2.10;;;8.00;99.90;;;;;;5023446;28;20452;-83
2022/12/28 07:59:40;;;;;;;3.70;2.10;;;8.00;99.90;;;;;;5026334;28;20474;-82
2022/12/28 08:02:09;;;;;;;6.17;2.27;;;8.10;99.90;;;;;;5020760;28;20452;-81
2022/12/28 08:04:37;;;;;;;7.70;2.43;;;8.10;99.90;;;;;;5030563;28;20472;-83
2022/12/28 08:07:04;;;;;;;4.60;2.00;;;8.10;99.90;;;;;;5024209;28;20539;-82
2022/12/28 08:09:30;;;;;;;6.30;1.63;;;8.10;99.90;;;;;;5022040;28;20455;-81
2022/12/28 08:11:57;;;;;;;7.30;2.30;;;8.10;99.90;;;;;;5029806;28;21031;-82
2022/12/28 08:14:24;;;;;;;3.07;1.90;;;8.10;99.90;;;;;;5027153;28;20489;-83
2022/12/28 08:16:51;;;;;;;3.50;1.90;;;8.10;99.90;;;;;;5018947;28;20507;-82
2022/12/28 08:19:18;;;;;;;3.37;2.00;;;8.10;99.90;;;;;;5035537;28;20452;-83
2022/12/28 08:21:46;;;;;;;4.80;2.33;;;8.20;99.90;;;;;;5024520;28;20544;-82
2022/12/28 08:24:15;;;;;;;2.93;2.27;;;8.20;99.90;;;;;;5017478;28;20480;-82
2022/12/28 08:26:42;;;;;;;3.00;1.67;;;8.10;99.90;;;;;;5020010;28;20456;-81
2022/12/28 08:29:12;;;;;;;2.60;1.77;;;8.20;99.90;;;;;;5019843;28;20538;-82
2022/12/28 08:31:42;;;;;;;3.93;1.60;;;8.20;99.90;;;;;;5026597;28;20458;-82
2022/12/28 08:34:12;;;;;;;5.23;2.03;;;8.20;99.90;;;;;;5028895;28;20941;-81
2022/12/28 08:36:39;;;;;;;4.93;1.93;;;8.20;99.90;;;;;;5026579;28;20528;-83
2022/12/28 08:39:07;;;;;;;4.70;2.10;;;8.20;99.90;;;;;;5018414;28;20453;-82
2022/12/28 08:41:37;;;;;;;3.30;1.87;;;8.20;99.90;;;;;;5022272;28;20483;-82
2022/12/28 08:44:04;;;;;;;2.83;1.47;;;8.30;99.90;;;;;;5022122;28;20442;-81
2022/12/28 08:46:33;;;;;;;4.10;1.70;;;8.30;99.90;;;;;;5030964;28;20835;-80
2022/12/28 08:49:01;;;;;;;2.37;1.40;;;8.30;99.90;;;;;;5028903;28;20538;-82
2022/12/28 08:51:31;;;;;;;3.83;1.50;;;8.30;99.90;;;;;;5029762;28;20490;-82
2022/12/28 08:53:58;;;;;;;3.00;1.70;;;8.30;99.90;;;;;;5027591;28;20512;-80
2022/12/28 08:56:28;;;;;;;2.90;1.60;;;8.40;99.90;;;;;;5030179;28;20448;-82
2022/12/28 08:58:55;;;;;;;5.90;1.50;;;8.40;99.90;;;;;;5027915;28;20460;-81
2022/12/28 09:01:24;;;;;;;2.10;1.83;;;8.50;99.90;;;;;;5031937;28;20456;-84
2022/12/28 09:03:53;;;;;;;2.33;1.40;;;8.50;99.90;;;;;;5036582;28;20452;-80
2022/12/28 09:06:23;;;;;;;2.00;1.13;;;8.50;99.90;;;;;;5026700;28;20452;-83
2022/12/28 09:08:50;;;;;;;3.33;1.30;;;8.50;99.90;;;;;;5023337;28;20467;-81
2022/12/28 09:11:17;;;;;;;5.47;1.87;;;8.50;99.90;;;;;;5025759;28;20450;-80
2022/12/28 09:13:46;;;;;;;2.10;1.10;;;8.60;99.90;;;;;;5019579;28;20456;-81
2022/12/28 09:16:14;;;;;;;1.93;1.10;;;8.60;99.90;;;;;;5036546;28;20483;-81
2022/12/28 09:18:43;;;;;;;3.23;1.27;;;8.70;99.90;;;;;;5040797;28;20456;-80
2022/12/28 09:21:12;;;;;;;2.10;1.30;;;8.70;99.90;;;;;;5046504;28;20872;-81
2022/12/28 09:23:39;;;;;;;2.20;1.20;;;8.80;99.90;;;;;;5048196;28;20441;-83
2022/12/28 09:26:07;;;;;;;3.47;1.27;;;8.80;99.90;;;;;;5039039;28;20477;-80
2022/12/28 09:28:34;;;;;;;5.23;1.97;;;8.90;99.90;;;;;;5049638;28;20532;-81
2022/12/28 09:31:04;;;;;;;2.90;1.13;;;8.90;99.90;;;;;;5046236;28;20474;-84
2022/12/28 09:36:15;;;;;;;2.90;1.00;;;9.10;99.90;;;;;;5031681;28;20513;-81
2022/12/28 09:38:42;;;;;;;3.20;1.10;;;9.10;99.90;;;;;;5031766;28;20442;-81
2022/12/28 09:41:21;;;;;;;4.97;1.10;;;9.10;99.90;;;;;;5033689;28;20453;-82
2022/12/28 09:43:50;;;;;;;3.20;0.90;;;9.10;99.90;;;;;;5034822;28;20808;-83
2022/12/28 09:46:22;;;;;;;3.80;1.30;;;9.20;99.90;;;;;;5022657;28;20463;-80
2022/12/28 09:48:54;;;;;;;3.03;1.00;;;9.30;99.90;;;;;;5022925;28;20506;-81
2022/12/28 09:51:28;;;;;;;6.70;3.60;;;9.30;99.90;;;;;;5023477;28;20539;-80
2022/12/28 09:53:55;;;;;;;3.60;1.10;;;9.40;99.90;;;;;;5021936;28;20460;-82
2022/12/28 09:56:28;;;;;;;2.57;1.23;;;9.40;99.90;;;;;;5022598;28;20455;-81
2022/12/28 09:58:57;;;;;;;3.20;1.17;;;9.50;99.90;;;;;;5022153;28;20454;-81
2022/12/28 10:01:27;;;;;;;1.83;0.90;;;9.50;99.90;;;;;;5024089;28;20451;-81
2022/12/28 10:03:55;;;;;;;1.80;0.90;;;9.50;99.90;;;;;;5025683;28;20746;-81
2022/12/28 10:06:25;;;;;;;2.63;1.03;;;9.50;99.90;;;;;;5024856;28;20458;-82
2022/12/28 10:08:54;;;;;;;2.13;1.30;;;9.50;99.90;;;;;;5032747;28;20474;-81
2022/12/28 10:11:24;;;;;;;4.30;1.40;;;9.60;99.90;;;;;;5033820;28;20515;-82
2022/12/28 10:13:55;;;;;;;4.03;1.30;;;9.70;99.90;;;;;;5025343;28;20459;-82
2022/12/28 10:16:23;;;;;;;1.50;0.90;;;9.70;99.90;;;;;;5034347;28;20447;-79
2022/12/28 10:18:51;;;;;;;3.20;1.00;;;9.80;99.90;;;;;;5041911;28;20546;-80
2022/12/28 10:21:21;;;;;;;2.47;1.00;;;9.70;99.90;;;;;;5040181;28;20488;-81
2022/12/28 10:23:50;;;;;;;2.57;1.07;;;9.70;99.90;;;;;;5034208;28;20530;-81
2022/12/28 10:26:19;;;;;;;4.17;0.83;;;9.80;99.90;;;;;;5028348;28;20475;-81
2022/12/28 10:28:51;;;;;;;2.07;1.00;;;9.80;99.90;;;;;;5022274;28;20478;-81
2022/12/28 10:31:32;;;;;;;2.50;1.00;;;9.90;99.90;;;;;;5023754;28;20498;-80
2022/12/28 10:34:00;;;;;;;2.43;0.70;;;9.90;99.90;;;;;;5022834;28;20443;-81
2022/12/28 10:36:31;;;;;;;1.80;1.00;;;10.00;99.90;;;;;;5025113;28;20473;-82
2022/12/28 10:38:59;;;;;;;1.77;0.80;;;9.90;99.90;;;;;;5023969;28;20464;-81
2022/12/28 10:41:35;;;;;;;2.10;0.90;;;9.90;99.90;;;;;;5025755;28;20502;-82
2022/12/28 10:44:16;;;;;;;2.67;1.20;;;10.00;99.90;;;;;;5025601;28;20825;-82
2022/12/28 10:46:56;;;;;;;2.30;1.07;;;10.00;99.90;;;;;;5024393;28;20476;-82
2022/12/28 10:49:26;;;;;;;2.17;1.00;;;10.00;99.90;;;;;;5024972;28;20451;-81
2022/12/28 10:52:02;;;;;;;1.80;0.80;;;10.00;99.90;;;;;;5026778;28;20555;-80
2022/12/28 10:54:33;;;;;;;1.60;0.90;;;10.00;99.90;;;;;;5026997;28;20494;-80
2022/12/28 10:57:00;;;;;;;2.53;1.13;;;10.00;99.90;;;;;;5028321;28;20443;-81
2022/12/28 10:59:28;;;;;;;2.57;0.97;;;10.00;99.90;;;;;;5026013;28;20458;-82
2022/12/28 11:01:56;;;;;;;2.00;0.90;;;10.00;99.90;;;;;;5028220;28;20477;-82
2022/12/28 11:04:25;;;;;;;1.40;0.80;;;10.00;99.90;;;;;;5027617;28;20550;-83
2022/12/28 11:06:55;;;;;;;5.63;2.13;;;10.10;99.90;;;;;;5027905;28;20527;-82
2022/12/28 11:09:24;;;;;;;1.70;1.00;;;10.10;99.90;;;;;;5026462;28;20465;-82
2022/12/28 11:11:52;;;;;;;2.27;1.00;;;10.20;99.90;;;;;;5025351;28;20479;-82
2022/12/28 11:14:29;;;;;;;3.30;1.17;;;10.20;99.90;;;;;;5021812;28;20476;-81
2022/12/28 11:16:56;;;;;;;1.40;0.70;;;10.30;99.90;;;;;;5027443;28;20451;-82
2022/12/28 11:19:25;;;;;;;2.77;1.10;;;10.40;99.90;;;;;;5027421;28;20470;-84
2022/12/28 11:21:53;;;;;;;2.50;1.23;;;10.50;99.90;;;;;;5029829;28;20451;-83
2022/12/28 11:24:25;;;;;;;2.80;1.13;;;10.50;99.90;;;;;;5030090;28;20509;-82
2022/12/28 11:26:53;;;;;;;1.87;1.10;;;10.50;99.90;;;;;;5027517;28;20457;-82
2022/12/28 11:29:19;;;;;;;1.97;1.33;;;10.50;99.90;;;;;;5029388;28;20455;-82
2022/12/28 11:31:50;;;;;;;2.40;1.10;;;10.60;99.90;;;;;;5029649;28;20455;-82
2022/12/28 11:34:20;;;;;;;2.90;1.93;;;10.60;99.90;;;;;;5036295;28;20506;-81
2022/12/28 11:36:49;;;;;;;4.70;1.20;;;10.60;99.90;;;;;;5025924;28;20551;-82
2022/12/28 11:39:41;;;;;;;3.20;1.10;;;10.60;99.90;;;;;;5032296;28;20478;-83
2022/12/28 11:42:09;;;;;;;2.30;1.00;;;10.60;99.90;;;;;;5036046;28;20453;-84
2022/12/28 11:44:52;;;;;;;5.90;1.00;;;10.60;99.90;;;;;;5028686;28;20480;-82
2022/12/28 11:47:32;;;;;;;3.57;1.20;;;10.50;99.90;;;;;;5028334;28;20456;-81
2022/12/28 11:50:38;;;;;;;4.30;1.20;;;10.50;99.90;;;;;;5031837;28;20460;-82
2022/12/28 11:53:22;;;;;;;2.10;0.90;;;10.50;99.90;;;;;;5034398;28;20820;-82
2022/12/28 11:56:01;;;;;;;2.33;1.10;;;10.30;99.90;;;;;;5033087;28;20512;-83
2022/12/28 11:59:20;;;;;;;2.37;1.03;;;10.20;99.90;;;;;;5029807;28;20458;-79
2022/12/28 12:01:49;;;;;;;2.37;1.00;;;10.20;99.90;;;;;;5032634;28;20449;-82
2022/12/28 12:04:39;;;;;;;2.47;1.07;;;10.10;99.90;;;;;;5033919;28;20852;-81
2022/12/28 12:07:24;;;;;;;2.57;1.20;;;10.10;99.90;;;;;;5037575;28;20443;-80
2022/12/28 12:10:12;;;;;;;2.83;1.53;;;10.00;99.90;;;;;;5028096;28;20472;-82
2022/12/28 12:12:48;;;;;;;3.27;1.63;;;10.00;99.90;;;;;;5028515;28;20459;-82
2022/12/28 12:15:18;;;;;;;3.10;1.50;;;9.90;99.90;;;;;;5028045;28;20671;-82
2022/12/28 12:17:49;;;;;;;4.20;1.30;;;9.90;99.90;;;;;;5034541;28;20463;-83
2022/12/28 12:20:24;;;;;;;2.17;1.40;;;9.90;99.90;;;;;;5042632;28;20897;-79
2022/12/28 12:22:56;;;;;;;3.30;1.23;;;9.80;99.90;;;;;;5042718;28;20550;-81
2022/12/28 12:25:32;;;;;;;1.80;1.10;;;9.80;99.90;;;;;;5036053;28;20473;-81
2022/12/28 12:28:03;;;;;;;2.30;1.23;;;9.70;99.90;;;;;;5037382;28;20466;-81
2022/12/28 12:30:31;;;;;;;1.60;1.00;;;9.50;99.90;;;;;;5041841;28;20447;-81
2022/12/28 12:33:00;;;;;;;3.17;1.70;;;9.60;99.90;;;;;;5046023;28;20443;-82
2022/12/28 12:35:29;;;;;;;2.33;1.30;;;9.70;99.90;;;;;;5041841;28;20466;-83
2022/12/28 12:38:00;;;;;;;1.80;1.07;;;9.70;99.90;;;;;;5047207;28;20447;-82
2022/12/28 12:40:58;;;;;;;4.40;1.30;;;9.60;99.90;;;;;;5034673;28;20478;-83
2022/12/28 12:43:45;;;;;;;3.23;1.40;;;9.70;99.90;;;;;;5034371;28;20492;-81
2022/12/28 12:46:48;;;;;;;2.17;1.10;;;9.60;99.90;;;;;;5034704;28;20506;-84
2022/12/28 12:49:36;;;;;;;2.17;1.23;;;9.60;99.90;;;;;;5048355;28;20458;-85
2022/12/28 12:52:16;;;;;;;2.07;1.43;;;9.50;99.90;;;;;;5054842;28;20502;-83
2022/12/28 12:54:53;;;;;;;3.33;1.33;;;9.50;99.90;;;;;;5054651;28;20529;-84
2022/12/28 12:57:30;;;;;;;2.90;1.20;;;9.50;99.90;;;;;;5036212;28;20469;-82
2022/12/28 13:00:09;;;;;;;2.37;1.40;;;9.40;99.90;;;;;;5035020;28;20875;-83
2022/12/28 13:02:59;;;;;;;3.20;1.93;;;9.40;99.90;;;;;;5038432;28;20453;-83
2022/12/28 13:05:28;;;;;;;5.37;1.73;;;9.40;99.90;;;;;;5040389;28;20468;-82
2022/12/28 13:07:58;;;;;;;1.80;1.00;;;9.30;99.90;;;;;;5041783;28;20473;-81
2022/12/28 13:10:31;;;;;;;3.90;1.53;;;9.30;99.90;;;;;;5036656;28;20450;-81
2022/12/28 13:13:02;;;;;;;2.60;1.47;;;9.30;99.90;;;;;;5034168;28;20451;-82
2022/12/28 13:15:30;;;;;;;2.67;1.47;;;9.20;99.90;;;;;;5032504;28;21023;-80
2022/12/28 13:18:02;;;;;;;3.10;1.10;;;9.20;99.90;;;;;;5035822;28;20455;-81
2022/12/28 13:20:30;;;;;;;2.10;1.00;;;9.10;99.90;;;;;;5035294;28;20534;-81
2022/12/28 13:22:56;;;;;;;2.60;1.30;;;9.10;99.90;;;;;;5039546;28;20474;-82
2022/12/28 13:25:27;;;;;;;3.63;1.33;;;9.10;99.90;;;;;;5025963;28;20495;-81
2022/12/28 13:27:55;;;;;;;3.10;1.20;;;9.10;99.90;;;;;;5031244;28;20498;-83
2022/12/28 13:30:24;;;;;;;4.07;1.60;;;9.00;99.90;;;;;;5044698;28;20523;-84
2022/12/28 13:32:53;;;;;;;2.80;1.40;;;9.00;99.90;;;;;;5038980;28;20447;-82
2022/12/28 13:35:22;;;;;;;3.53;1.20;;;9.00;99.90;;;;;;5035585;28;20586;-83
2022/12/28 13:38:01;;;;;;;3.77;1.50;;;9.00;99.90;;;;;;5035194;28;20546;-81
2022/12/28 13:40:29;;;;;;;3.40;1.23;;;9.00;99.90;;;;;;5037801;28;20456;-82
2022/12/28 13:43:10;;;;;;;2.30;1.13;;;9.00;99.90;;;;;;5030668;28;20450;-82
2022/12/28 13:46:37;;;;;;;8.60;1.10;;;9.00;99.90;;;;;;5058793;22;20507;-81